createdAt,value
2019-02-23T00:00:54.313Z,35.08
2019-02-23T00:03:25.110Z,35.30
2019-02-23T00:05:55.862Z,37.93
2019-02-23T00:08:26.810Z,34.65
2019-02-23T00:10:57.679Z,36.77
2019-02-23T00:13:28.467Z,37.90
2019-02-23T00:15:59.231Z,37.33
2019-02-23T00:18:29.986Z,38.83
2019-02-23T00:21:00.832Z,38.43
2019-02-23T00:23:31.889Z,32.70
2019-02-23T00:26:02.708Z,34.63
2019-02-23T00:28:33.481Z,30.68
2019-02-23T00:31:04.268Z,30.92
2019-02-23T00:33:35.043Z,26.65
2019-02-23T00:36:05.803Z,28.40
2019-02-23T00:38:36.605Z,26.15
2019-02-23T00:41:07.658Z,27.77
2019-02-23T00:43:38.474Z,24.95
2019-02-23T00:46:09.232Z,25.57
2019-02-23T00:48:40.366Z,24.32
2019-02-23T00:51:11.184Z,23.57
2019-02-23T00:53:41.956Z,24.60
2019-02-23T00:56:12.723Z,24.87
2019-02-23T00:58:43.803Z,26.55
2019-02-23T01:01:14.712Z,24.15
2019-02-23T01:03:45.496Z,23.35
2019-02-23T01:06:16.405Z,23.27
2019-02-23T01:08:47.580Z,23.60
2019-02-23T01:11:18.720Z,20.97
2019-02-23T01:13:49.554Z,22.90
2019-02-23T01:16:20.316Z,20.90
2019-02-23T01:18:51.531Z,21.73
2019-02-23T01:21:22.370Z,20.90
2019-02-23T01:23:54.518Z,22.43
2019-02-23T01:26:25.394Z,22.10
2019-02-23T01:28:56.300Z,23.57
2019-02-23T01:31:27.309Z,22.37
2019-02-23T01:33:58.156Z,22.23
2019-02-23T01:36:28.906Z,22.13
2019-02-23T01:39:00.323Z,22.45
2019-02-23T01:41:31.260Z,21.45
2019-02-23T01:44:02.035Z,22.98
2019-02-23T01:46:32.802Z,23.43
2019-02-23T01:49:03.694Z,22.55
2019-02-23T01:51:34.562Z,21.75
2019-02-23T01:54:05.491Z,23.98
2019-02-23T01:56:36.322Z,23.07
2019-02-23T01:59:07.069Z,22.10
2019-02-23T02:01:38.711Z,21.87
2019-02-23T02:04:09.950Z,20.65
2019-02-23T02:06:40.741Z,19.95
2019-02-23T02:09:11.771Z,19.60
2019-02-23T02:11:42.558Z,19.15
2019-02-23T02:14:13.369Z,18.62
2019-02-23T02:16:44.389Z,19.17
2019-02-23T02:19:15.810Z,18.27
2019-02-23T02:21:47.225Z,18.30
2019-02-23T02:24:18.845Z,19.30
2019-02-23T02:26:49.985Z,18.32
2019-02-23T02:29:20.739Z,18.60
2019-02-23T02:31:51.462Z,18.48
2019-02-23T02:34:22.202Z,18.20
2019-02-23T02:36:53.021Z,18.55
2019-02-23T02:39:24.383Z,17.92
2019-02-23T02:41:55.118Z,19.02
2019-02-23T02:44:25.951Z,18.60
2019-02-23T02:46:56.673Z,19.50
2019-02-23T02:49:27.410Z,19.40
2019-02-23T02:51:58.230Z,19.95
2019-02-23T02:54:28.960Z,19.00
2019-02-23T02:57:00.105Z,19.75
2019-02-23T02:59:30.855Z,20.10
2019-02-23T03:02:01.918Z,19.42
2019-02-23T03:04:33.200Z,19.87
2019-02-23T03:07:04.027Z,20.37
2019-02-23T03:09:34.865Z,20.25
2019-02-23T03:12:05.895Z,19.56
2019-02-23T03:14:36.832Z,20.52
2019-02-23T03:17:08.036Z,21.68
2019-02-23T03:19:38.834Z,20.72
2019-02-23T03:22:09.619Z,21.25
2019-02-23T03:24:40.971Z,21.45
2019-02-23T03:27:11.813Z,22.07
2019-02-23T03:29:42.533Z,22.02
2019-02-23T03:32:13.278Z,21.80
2019-02-23T03:34:44.067Z,21.75
2019-02-23T03:37:14.859Z,21.97
2019-02-23T03:39:45.701Z,22.60
2019-02-23T03:42:16.710Z,21.15
2019-02-23T03:44:47.677Z,22.55
2019-02-23T03:47:18.444Z,23.00
2019-02-23T03:49:49.254Z,21.82
2019-02-23T03:52:20.943Z,22.07
2019-02-23T03:54:51.703Z,21.85
2019-02-23T03:57:23.015Z,23.55
2019-02-23T03:59:54.104Z,22.73
2019-02-23T04:02:24.849Z,23.10
2019-02-23T04:04:55.579Z,22.62
2019-02-23T04:07:26.730Z,22.67
2019-02-23T04:09:57.869Z,23.52
2019-02-23T04:12:28.683Z,23.45
2019-02-23T04:14:59.508Z,23.67
2019-02-23T04:20:08.743Z,22.20
2019-02-23T04:22:39.479Z,24.10
2019-02-23T04:25:10.317Z,23.60
2019-02-23T04:27:44.640Z,23.55
2019-02-23T04:30:15.704Z,24.83
2019-02-23T04:32:46.720Z,24.15
2019-02-23T04:35:17.432Z,24.07
2019-02-23T04:37:48.222Z,23.07
2019-02-23T04:40:19.076Z,23.32
2019-02-23T04:42:50.109Z,23.07
2019-02-23T04:45:21.162Z,23.75
2019-02-23T04:47:51.888Z,24.47
2019-02-23T04:50:23.311Z,25.10
2019-02-23T04:52:54.358Z,25.45
2019-02-23T04:55:25.500Z,24.20
2019-02-23T04:57:56.257Z,25.50
2019-02-23T05:00:26.992Z,24.40
2019-02-23T05:02:58.020Z,25.45
2019-02-23T05:05:28.873Z,26.00
2019-02-23T05:08:00.188Z,24.50
2019-02-23T05:10:30.985Z,25.32
2019-02-23T05:13:01.773Z,24.92
2019-02-23T05:15:32.507Z,24.87
2019-02-23T05:18:03.239Z,25.68
2019-02-23T05:20:34.188Z,24.52
2019-02-23T05:23:05.135Z,26.33
2019-02-23T05:25:36.470Z,25.02
2019-02-23T05:28:07.550Z,26.50
2019-02-23T05:30:57.503Z,26.95
2019-02-23T05:33:28.489Z,26.97
2019-02-23T05:35:59.467Z,26.73
2019-02-23T05:38:30.219Z,26.50
2019-02-23T05:41:00.958Z,25.68
2019-02-23T05:43:31.684Z,26.75
2019-02-23T05:46:02.403Z,27.35
2019-02-23T05:48:33.463Z,26.57
2019-02-23T05:51:04.188Z,27.40
2019-02-23T05:53:35.231Z,27.05
2019-02-23T05:56:05.941Z,26.07
2019-02-23T05:58:36.982Z,27.15
2019-02-23T06:01:07.745Z,26.37
2019-02-23T06:03:38.650Z,26.40
2019-02-23T06:06:09.698Z,26.02
2019-02-23T06:08:40.433Z,26.17
2019-02-23T06:11:11.506Z,25.45
2019-02-23T06:13:42.531Z,25.80
2019-02-23T06:16:13.261Z,25.75
2019-02-23T06:18:43.990Z,26.65
2019-02-23T06:21:14.719Z,26.60
2019-02-23T06:23:45.717Z,26.77
2019-02-23T06:26:16.439Z,25.97
2019-02-23T06:28:47.436Z,26.02
2019-02-23T06:31:18.175Z,26.30
2019-02-23T06:33:49.243Z,25.30
2019-02-23T06:36:20.055Z,25.30
2019-02-23T06:38:51.145Z,23.67
2019-02-23T06:41:21.866Z,24.47
2019-02-23T06:43:53.864Z,25.88
2019-02-23T06:46:26.086Z,27.07
2019-02-23T06:48:56.811Z,24.93
2019-02-23T06:51:27.573Z,24.92
2019-02-23T06:53:58.317Z,25.20
2019-02-23T06:56:29.067Z,25.40
2019-02-23T06:59:00.043Z,25.15
2019-02-23T07:01:31.829Z,25.75
2019-02-23T07:04:02.648Z,24.52
2019-02-23T07:06:33.528Z,25.30
2019-02-23T07:09:04.995Z,25.12
2019-02-23T07:11:36.428Z,24.47
2019-02-23T07:14:07.134Z,22.75
2019-02-23T07:16:38.160Z,23.50
2019-02-23T07:19:08.903Z,23.40
2019-02-23T07:21:39.648Z,23.73
2019-02-23T07:24:10.675Z,23.50
2019-02-23T07:26:41.422Z,23.07
2019-02-23T07:29:12.293Z,23.67
2019-02-23T07:31:43.071Z,23.73
2019-02-23T07:34:13.823Z,23.15
2019-02-23T07:36:44.543Z,23.27
2019-02-23T07:39:15.570Z,23.35
2019-02-23T07:41:46.298Z,23.92
2019-02-23T07:44:17.069Z,22.45
2019-02-23T07:46:48.156Z,21.50
2019-02-23T07:49:18.942Z,20.90
2019-02-23T07:51:50.278Z,20.77
2019-02-23T07:54:21.570Z,20.12
2019-02-23T07:56:52.366Z,20.25
2019-02-23T07:59:23.215Z,20.57
2019-02-23T08:01:54.052Z,20.27
2019-02-23T08:04:25.053Z,20.17
2019-02-23T08:06:56.197Z,19.05
2019-02-23T08:09:26.911Z,18.73
2019-02-23T08:11:57.660Z,19.02
2019-02-23T08:14:28.598Z,19.77
2019-02-23T08:16:59.342Z,19.27
2019-02-23T08:19:30.191Z,18.62
2019-02-23T08:22:00.928Z,18.75
2019-02-23T08:24:31.711Z,18.45
2019-02-23T08:27:02.555Z,18.93
2019-02-23T08:29:33.317Z,18.00
2019-02-23T08:32:04.143Z,18.37
2019-02-23T08:34:34.895Z,18.62
2019-02-23T08:37:05.716Z,18.47
2019-02-23T08:39:36.479Z,17.75
2019-02-23T08:42:08.154Z,18.25
2019-02-23T08:44:38.969Z,18.90
2019-02-23T08:47:09.735Z,18.75
2019-02-23T08:49:40.502Z,17.23
2019-02-23T08:52:13.478Z,17.30
2019-02-23T08:54:44.253Z,17.30
2019-02-23T08:57:15.067Z,18.20
2019-02-23T08:59:46.099Z,17.85
2019-02-23T09:02:17.193Z,18.02
2019-02-23T09:04:48.459Z,17.23
2019-02-23T09:07:19.544Z,17.32
2019-02-23T09:09:50.624Z,17.17
2019-02-23T09:12:21.701Z,16.50
2019-02-23T09:14:53.239Z,17.55
2019-02-23T09:17:24.461Z,16.93
2019-02-23T09:19:55.997Z,16.62
2019-02-23T09:22:27.980Z,16.48
2019-02-23T09:25:00.349Z,16.20
2019-02-23T09:27:31.494Z,16.27
2019-02-23T09:30:02.676Z,16.03
2019-02-23T09:32:33.877Z,16.35
2019-02-23T09:35:05.305Z,16.03
2019-02-23T09:37:36.682Z,15.50
2019-02-23T09:40:09.107Z,15.23
2019-02-23T09:42:42.840Z,16.40
2019-02-23T09:45:14.408Z,14.93
2019-02-23T09:47:45.305Z,15.45
2019-02-23T09:50:16.156Z,16.12
2019-02-23T09:52:47.475Z,15.83
2019-02-23T09:55:18.835Z,15.17
2019-02-23T09:57:50.119Z,15.03
2019-02-23T10:00:21.401Z,14.87
2019-02-23T10:02:52.283Z,14.68
2019-02-23T10:05:24.001Z,15.25
2019-02-23T10:07:55.841Z,14.85
2019-02-23T10:10:26.891Z,15.47
2019-02-23T10:12:58.091Z,15.32
2019-02-23T10:15:28.921Z,14.85
2019-02-23T10:18:00.658Z,15.28
2019-02-23T10:20:31.502Z,14.25
2019-02-23T10:23:02.343Z,14.70
2019-02-23T10:25:33.114Z,16.77
2019-02-23T10:28:04.045Z,14.45
2019-02-23T10:30:35.308Z,14.68
2019-02-23T10:33:06.333Z,15.23
2019-02-23T10:35:37.174Z,14.23
2019-02-23T10:38:07.987Z,14.95
2019-02-23T10:40:38.736Z,14.58
2019-02-23T10:43:09.578Z,14.47
2019-02-23T10:45:40.346Z,14.73
2019-02-23T10:48:11.056Z,14.03
2019-02-23T10:50:41.927Z,15.55
2019-02-23T10:53:12.689Z,15.50
2019-02-23T10:55:43.582Z,15.33
2019-02-23T10:58:14.332Z,14.55
2019-02-23T11:00:45.465Z,14.53
2019-02-23T11:03:17.489Z,14.85
2019-02-23T11:05:48.643Z,14.47
2019-02-23T11:08:19.631Z,14.47
2019-02-23T11:10:50.372Z,14.40
2019-02-23T11:13:21.551Z,14.90
2019-02-23T11:15:52.358Z,15.45
2019-02-23T11:18:23.138Z,13.88
2019-02-23T11:20:54.323Z,14.50
2019-02-23T11:23:25.155Z,13.75
2019-02-23T11:25:56.130Z,14.10
2019-02-23T11:28:27.458Z,13.28
2019-02-23T11:31:00.362Z,13.72
2019-02-23T11:33:31.365Z,14.00
2019-02-23T11:36:02.823Z,13.72
2019-02-23T11:38:33.785Z,13.40
2019-02-23T11:41:04.798Z,13.13
2019-02-23T11:43:35.888Z,12.40
2019-02-23T11:46:07.171Z,12.80
2019-02-23T11:48:50.413Z,12.20
2019-02-23T11:51:20.063Z,11.70
2019-02-23T11:53:55.023Z,12.63
2019-02-23T11:56:24.037Z,12.23
2019-02-23T11:58:55.355Z,12.30
2019-02-23T12:01:27.353Z,13.38
2019-02-23T12:03:59.940Z,12.75
2019-02-23T12:06:31.137Z,12.65
2019-02-23T12:09:02.232Z,12.58
2019-02-23T12:11:37.270Z,13.53
2019-02-23T12:14:08.206Z,10.95
2019-02-23T12:16:39.993Z,10.33
2019-02-23T12:19:11.987Z,10.43
2019-02-23T12:21:43.531Z,10.48
2019-02-23T12:24:16.544Z,10.87
2019-02-23T12:26:49.460Z,11.65
2019-02-23T12:29:21.865Z,11.03
2019-02-23T12:31:54.593Z,11.43
2019-02-23T12:34:25.995Z,12.78
2019-02-23T12:36:57.713Z,10.75
2019-02-23T12:39:28.571Z,11.28
2019-02-23T12:41:59.808Z,10.63
2019-02-23T12:44:30.635Z,10.67
2019-02-23T12:47:01.501Z,10.80
2019-02-23T12:49:32.416Z,11.65
2019-02-23T12:52:04.356Z,11.65
2019-02-23T12:54:37.358Z,11.47
2019-02-23T12:57:08.299Z,10.72
2019-02-23T12:59:39.239Z,9.50
2019-02-23T13:02:10.103Z,9.90
2019-02-23T13:04:40.955Z,9.88
2019-02-23T13:07:11.759Z,9.90
2019-02-23T13:09:47.105Z,9.33
2019-02-23T13:13:10.497Z,10.20
2019-02-23T13:16:05.541Z,10.23
2019-02-23T13:19:08.130Z,10.35
2019-02-23T13:21:46.184Z,9.68
2019-02-23T13:24:54.011Z,9.93
2019-02-23T13:28:08.154Z,9.00
2019-02-23T13:31:22.388Z,9.48
2019-02-23T13:34:24.237Z,9.15
2019-02-23T13:37:25.262Z,8.55
2019-02-23T13:40:23.910Z,9.73
2019-02-23T13:43:27.208Z,8.90
2019-02-23T13:46:45.016Z,9.18
2019-02-23T13:49:40.115Z,8.63
2019-02-23T13:52:35.784Z,8.15
2019-02-23T13:55:42.659Z,8.78
2019-02-23T13:58:43.481Z,8.88
2019-02-23T14:01:43.432Z,9.30
2019-02-23T14:04:40.018Z,8.53
2019-02-23T14:07:49.190Z,8.85
2019-02-23T14:10:48.253Z,10.00
2019-02-23T14:14:16.122Z,9.90
2019-02-23T14:17:21.128Z,9.50
2019-02-23T14:20:08.000Z,8.78
2019-02-23T14:23:19.009Z,8.60
2019-02-23T14:26:21.264Z,8.10
2019-02-23T14:29:09.684Z,10.03
2019-02-23T14:32:21.150Z,8.38
2019-02-23T14:35:33.988Z,8.98
2019-02-23T14:38:29.315Z,9.10
2019-02-23T14:41:33.214Z,8.43
2019-02-23T14:44:40.655Z,10.10
2019-02-23T14:47:32.075Z,13.60
2019-02-23T14:50:28.396Z,10.60
2019-02-23T14:53:25.556Z,9.70
2019-02-23T14:56:36.077Z,10.23
2019-02-23T14:59:24.704Z,8.85
2019-02-23T15:02:17.942Z,7.20
2019-02-23T15:05:17.884Z,8.48
2019-02-23T15:08:28.946Z,11.35
2019-02-23T15:12:08.890Z,7.87
2019-02-23T15:15:17.064Z,6.30
2019-02-23T15:18:16.365Z,7.55
2019-02-23T15:21:18.048Z,7.60
2019-02-23T15:24:13.458Z,8.30
2019-02-23T15:27:24.145Z,5.72
2019-02-23T15:30:26.360Z,5.95
2019-02-23T15:33:41.838Z,6.30
2019-02-23T15:37:09.021Z,7.75
2019-02-23T15:40:16.982Z,6.70
2019-02-23T15:43:24.014Z,6.47
2019-02-23T15:46:35.157Z,6.42
2019-02-23T15:49:31.157Z,5.47
2019-02-23T15:52:06.439Z,6.40
2019-02-23T15:54:37.415Z,6.12
2019-02-23T15:57:08.445Z,8.90
2019-02-23T15:59:44.494Z,6.67
2019-02-23T16:02:15.868Z,10.63
2019-02-23T16:04:46.964Z,10.10
2019-02-23T16:07:17.740Z,6.03
2019-02-23T16:09:48.631Z,6.58
2019-02-23T16:12:19.361Z,7.05
2019-02-23T16:14:51.095Z,5.67
2019-02-23T16:17:21.986Z,6.30
2019-02-23T16:19:52.929Z,7.60
2019-02-23T16:22:23.769Z,7.33
2019-02-23T16:24:54.592Z,9.95
2019-02-23T16:27:27.644Z,5.42
2019-02-23T16:29:59.071Z,7.62
2019-02-23T16:32:29.858Z,5.92
2019-02-23T16:35:00.976Z,6.85
2019-02-23T16:37:32.801Z,6.67
2019-02-23T16:40:04.009Z,8.95
2019-02-23T16:42:34.823Z,6.92
2019-02-23T16:45:06.166Z,14.00
2019-02-23T16:47:36.967Z,7.85
2019-02-23T16:50:07.900Z,7.20
2019-02-23T16:52:38.752Z,6.42
2019-02-23T16:55:09.652Z,6.00
2019-02-23T16:57:40.572Z,6.07
2019-02-23T17:00:11.796Z,7.72
2019-02-23T17:02:42.543Z,7.10
2019-02-23T17:05:13.295Z,7.97
2019-02-23T17:07:44.140Z,7.75
2019-02-23T17:10:14.992Z,7.10
2019-02-23T17:12:46.209Z,6.55
2019-02-23T17:15:21.634Z,11.75
2019-02-23T17:17:52.572Z,14.45
2019-02-23T17:20:25.580Z,11.85
2019-02-23T17:22:55.917Z,10.72
2019-02-23T17:25:26.785Z,10.82
2019-02-23T17:27:57.605Z,11.87
2019-02-23T17:30:28.669Z,11.25
2019-02-23T17:32:59.849Z,11.90
2019-02-23T17:35:30.786Z,10.03
2019-02-23T17:38:02.101Z,11.08
2019-02-23T17:40:33.359Z,11.03
2019-02-23T17:43:04.284Z,11.17
2019-02-23T17:45:35.485Z,10.88
2019-02-23T17:48:06.726Z,11.65
2019-02-23T17:50:37.598Z,12.98
2019-02-23T17:53:08.414Z,14.80
2019-02-23T17:55:39.194Z,10.60
2019-02-23T17:58:09.994Z,10.58
2019-02-23T18:00:41.147Z,11.60
2019-02-23T18:03:12.016Z,11.05
2019-02-23T18:05:42.947Z,10.95
2019-02-23T18:08:14.028Z,11.10
2019-02-23T18:10:46.128Z,11.12
2019-02-23T18:13:16.955Z,13.83
2019-02-23T18:15:48.007Z,11.13
2019-02-23T18:18:20.034Z,12.28
2019-02-23T18:20:51.055Z,11.08
2019-02-23T18:23:21.988Z,10.80
2019-02-23T18:25:54.126Z,10.90
2019-02-23T18:28:25.974Z,11.13
2019-02-23T18:30:56.849Z,11.35
2019-02-23T18:33:27.667Z,12.05
2019-02-23T18:35:58.513Z,11.50
2019-02-23T18:38:29.403Z,12.47
2019-02-23T18:41:00.197Z,12.18
2019-02-23T18:43:30.968Z,12.03
2019-02-23T18:46:02.213Z,12.18
2019-02-23T18:48:33.215Z,12.60
2019-02-23T18:51:04.753Z,11.73
2019-02-23T18:53:35.767Z,12.90
2019-02-23T18:56:07.300Z,12.75
2019-02-23T18:58:38.656Z,12.27
2019-02-23T19:01:10.033Z,12.47
2019-02-23T19:03:41.386Z,12.65
2019-02-23T19:06:12.293Z,13.78
2019-02-23T19:08:43.279Z,13.10
2019-02-23T19:11:14.351Z,12.82
2019-02-23T19:13:45.341Z,12.70
2019-02-23T19:16:16.213Z,13.48
2019-02-23T19:18:47.064Z,13.30
2019-02-23T19:21:18.145Z,13.75
2019-02-23T19:24:08.183Z,13.48
2019-02-23T19:26:40.732Z,13.40
2019-02-23T19:29:11.716Z,12.70
2019-02-23T19:31:43.020Z,13.40
2019-02-23T19:34:13.892Z,13.75
2019-02-23T19:36:45.038Z,14.00
2019-02-23T19:39:16.274Z,13.13
2019-02-23T19:41:47.152Z,12.80
2019-02-23T19:44:18.053Z,13.58
2019-02-23T19:46:54.221Z,13.40
2019-02-23T19:49:25.151Z,13.10
2019-02-23T19:51:56.664Z,14.30
2019-02-23T19:54:27.760Z,13.58
2019-02-23T19:56:58.514Z,13.48
2019-02-23T19:59:29.683Z,12.88
2019-02-23T20:02:00.475Z,13.03
2019-02-23T20:04:31.842Z,13.20
2019-02-23T20:07:02.795Z,13.35
2019-02-23T20:09:34.001Z,12.78
2019-02-23T20:12:04.782Z,13.57
2019-02-23T20:14:36.089Z,21.55
2019-02-23T20:17:06.866Z,13.35
2019-02-23T20:19:37.662Z,14.13
2019-02-23T20:22:08.791Z,13.78
2019-02-23T20:24:39.907Z,13.58
2019-02-23T20:27:11.250Z,13.30
2019-02-23T20:29:42.143Z,13.40
2019-02-23T20:32:13.115Z,13.03
2019-02-23T20:34:43.917Z,13.95
2019-02-23T20:37:14.854Z,14.07
2019-02-23T20:39:45.714Z,13.40
2019-02-23T20:42:16.704Z,14.28
2019-02-23T20:44:47.604Z,14.15
2019-02-23T20:47:18.696Z,13.93
2019-02-23T20:49:50.927Z,13.40
2019-02-23T20:52:21.685Z,13.38
2019-02-23T20:54:52.586Z,13.83
2019-02-23T20:57:23.414Z,14.30
2019-02-23T20:59:54.262Z,13.72
2019-02-23T21:02:25.474Z,14.38
2019-02-23T21:04:56.659Z,14.45
2019-02-23T21:07:27.637Z,15.98
2019-02-23T21:09:59.539Z,15.10
2019-02-23T21:12:34.696Z,15.40
2019-02-23T21:15:06.492Z,15.42
2019-02-23T21:17:39.206Z,14.68
2019-02-23T21:20:10.610Z,17.05
2019-02-23T21:22:41.778Z,15.65
2019-02-23T21:25:12.698Z,17.37
2019-02-23T21:27:43.436Z,17.60
2019-02-23T21:30:14.469Z,16.55
2019-02-23T21:32:45.375Z,15.60
2019-02-23T21:35:16.226Z,16.23
2019-02-23T21:37:47.647Z,16.17
2019-02-23T21:40:18.798Z,15.18
2019-02-23T21:42:49.654Z,15.85
2019-02-23T21:45:20.810Z,16.48
2019-02-23T21:47:51.731Z,16.12
2019-02-23T21:50:22.517Z,15.78
2019-02-23T21:52:53.376Z,17.55
2019-02-23T21:55:24.148Z,17.65
2019-02-23T21:57:55.009Z,15.03
2019-02-23T22:00:26.016Z,16.87
2019-02-23T22:02:57.058Z,16.95
2019-02-23T22:05:30.790Z,17.50
2019-02-23T22:08:01.737Z,16.07
2019-02-23T22:10:32.578Z,16.25
2019-02-23T22:13:03.502Z,16.40
2019-02-23T22:15:34.386Z,15.63
2019-02-23T22:18:05.301Z,16.32
2019-02-23T22:20:36.116Z,16.20
2019-02-23T22:23:07.001Z,15.80
2019-02-23T22:25:37.985Z,16.67
2019-02-23T22:28:08.943Z,15.95
2019-02-23T22:30:39.794Z,15.55
2019-02-23T22:33:10.602Z,14.63
2019-02-23T22:35:41.684Z,15.32
2019-02-23T22:38:13.577Z,15.78
2019-02-23T22:40:44.773Z,15.45
2019-02-23T22:43:17.236Z,16.25
2019-02-23T22:45:48.160Z,14.85
2019-02-23T22:48:18.925Z,19.80
2019-02-23T22:50:49.681Z,15.45
2019-02-23T22:53:20.741Z,15.87
2019-02-23T22:55:51.545Z,16.35
2019-02-23T22:58:22.305Z,18.03
2019-02-23T23:00:54.373Z,15.28
2019-02-23T23:03:27.171Z,17.55
2019-02-23T23:05:58.351Z,15.45
2019-02-23T23:08:29.184Z,18.10
2019-02-23T23:11:00.184Z,15.53
2019-02-23T23:13:31.050Z,15.17
2019-02-23T23:16:01.915Z,16.23
2019-02-23T23:18:32.779Z,14.45
2019-02-23T23:21:03.640Z,15.13
2019-02-23T23:23:34.412Z,13.72
2019-02-23T23:26:05.260Z,14.10
2019-02-23T23:28:36.031Z,13.88
2019-02-23T23:31:06.823Z,14.40
2019-02-23T23:33:38.613Z,14.20
2019-02-23T23:36:09.503Z,14.00
2019-02-23T23:38:40.289Z,14.30
2019-02-23T23:41:11.245Z,14.35
2019-02-23T23:43:42.004Z,14.07
2019-02-23T23:46:12.913Z,14.58
2019-02-23T23:48:44.203Z,14.47
2019-02-23T23:51:15.116Z,15.90
2019-02-23T23:53:45.992Z,13.83
2019-02-23T23:56:16.774Z,13.58
2019-02-23T23:58:47.858Z,14.65
